RJNH(METAR)
08/23 01:00
METAR RJNH 221600Z 26004KT 9999 FEW020 SCT130 25/21 Q1013 RMK 1CU020
4AC130 A2993=
戻る
トップページへ戻る
IMOC Co,.Ltd.